createdAt,value
2022-08-12T00:02:03.552Z,4.80
2022-08-12T00:07:27.929Z,4.68
2022-08-12T00:12:49.021Z,5.18
2022-08-12T00:18:10.812Z,4.55
2022-08-12T00:23:32.189Z,5.10
2022-08-12T00:28:53.706Z,5.07
2022-08-12T00:34:15.444Z,4.70
2022-08-12T00:39:38.915Z,4.90
2022-08-12T00:44:44.618Z,4.63
2022-08-12T00:49:50.120Z,5.50
2022-08-12T00:55:00.789Z,5.00
2022-08-12T01:00:10.639Z,4.57
2022-08-12T01:05:34.810Z,4.93
2022-08-12T01:10:57.205Z,5.20
2022-08-12T01:16:03.462Z,5.53
2022-08-12T01:21:24.669Z,5.87
2022-08-12T01:26:27.076Z,5.67
2022-08-12T01:31:30.434Z,5.20
2022-08-12T01:36:41.120Z,5.43
2022-08-12T01:41:53.869Z,5.33
2022-08-12T01:47:43.157Z,5.30
2022-08-12T01:52:54.954Z,5.77
2022-08-12T01:58:21.006Z,5.70
2022-08-12T02:03:54.405Z,5.70
2022-08-12T02:09:18.912Z,5.40
2022-08-12T02:14:57.863Z,5.90
2022-08-12T02:20:01.268Z,5.80
2022-08-12T02:25:09.144Z,6.00
2022-08-12T02:30:22.060Z,5.33
2022-08-12T02:35:27.295Z,6.40
2022-08-12T02:40:30.192Z,6.30
2022-08-12T02:45:38.064Z,5.80
2022-08-12T02:50:46.758Z,6.83
2022-08-12T02:55:49.280Z,6.47
2022-08-12T03:00:51.808Z,7.47
2022-08-12T03:06:03.368Z,7.00
2022-08-12T03:11:14.230Z,6.93
2022-08-12T03:16:17.495Z,7.37
2022-08-12T03:21:55.368Z,7.13
2022-08-12T03:26:45.383Z,7.50
2022-08-12T03:31:48.701Z,7.53
2022-08-12T03:36:55.380Z,8.30
2022-08-12T03:41:59.914Z,8.40
2022-08-12T03:47:26.344Z,7.73
2022-08-12T03:52:46.972Z,7.40
2022-08-12T03:58:07.595Z,7.77
2022-08-12T04:03:29.522Z,8.40
2022-08-12T04:08:31.682Z,8.10
2022-08-12T04:13:33.597Z,8.37
2022-08-12T04:18:36.541Z,7.93
2022-08-12T04:23:47.664Z,7.73
2022-08-12T04:28:50.459Z,7.20
2022-08-12T04:33:52.743Z,8.20
2022-08-12T04:38:59.544Z,9.60
2022-08-12T04:44:02.660Z,8.47
2022-08-12T04:49:05.736Z,7.73
2022-08-12T04:54:07.794Z,7.63
2022-08-12T04:59:11.561Z,7.60
2022-08-12T05:04:13.693Z,8.80
2022-08-12T05:09:15.686Z,8.27
2022-08-12T05:14:17.848Z,8.83
2022-08-12T05:19:22.551Z,9.13
2022-08-12T05:24:24.940Z,7.90
2022-08-12T05:30:08.273Z,9.10
2022-08-12T05:34:53.582Z,8.20
2022-08-12T05:39:55.560Z,8.37
2022-08-12T05:44:57.597Z,9.00
2022-08-12T05:49:59.590Z,8.47
2022-08-12T05:55:02.817Z,8.40
2022-08-12T06:00:06.486Z,7.80
2022-08-12T06:05:13.937Z,8.18
2022-08-12T06:10:32.096Z,8.20
2022-08-12T06:15:39.853Z,7.78
2022-08-12T06:20:41.967Z,7.70
2022-08-12T06:25:43.829Z,7.70
2022-08-12T06:31:02.700Z,7.63
2022-08-12T06:36:09.469Z,6.82
2022-08-12T06:41:31.072Z,7.97
2022-08-12T06:46:33.140Z,7.80
2022-08-12T06:51:35.043Z,7.05
2022-08-12T07:01:59.352Z,7.25
2022-08-12T07:07:01.449Z,6.53
2022-08-12T07:12:04.015Z,6.70
2022-08-12T07:17:07.535Z,6.10
2022-08-12T07:22:14.046Z,6.57
2022-08-12T07:27:17.411Z,5.68
2022-08-12T07:32:25.544Z,5.63
2022-08-12T07:37:33.582Z,5.25
2022-08-12T07:42:35.668Z,5.68
2022-08-12T07:47:41.308Z,5.32
2022-08-12T07:52:45.297Z,5.50
2022-08-12T07:57:59.208Z,4.90
2022-08-12T08:03:01.797Z,4.68
2022-08-12T08:08:13.516Z,4.70
2022-08-12T08:13:16.498Z,4.30
2022-08-12T08:18:25.785Z,4.47
2022-08-12T08:23:56.185Z,3.97
2022-08-12T08:28:59.699Z,3.95
2022-08-12T08:34:33.591Z,4.47
2022-08-12T08:39:27.399Z,4.07
2022-08-12T08:44:29.566Z,3.20
2022-08-12T08:49:32.161Z,3.47
2022-08-12T08:54:37.978Z,3.60
2022-08-12T08:59:39.949Z,3.85
2022-08-12T09:05:11.484Z,3.50
2022-08-12T09:10:09.134Z,2.50
2022-08-12T09:20:42.384Z,3.20
2022-08-12T09:25:48.301Z,3.03
2022-08-12T09:30:51.054Z,3.00
2022-08-12T09:36:04.283Z,3.42
2022-08-12T09:42:33.287Z,3.20
2022-08-12T09:46:29.688Z,3.03
2022-08-12T09:51:37.929Z,2.72
2022-08-12T09:57:02.155Z,2.45
2022-08-12T10:02:45.235Z,2.30
2022-08-12T10:07:39.384Z,2.60
2022-08-12T10:13:08.269Z,2.60
2022-08-12T10:18:12.961Z,2.65
2022-08-12T10:23:14.806Z,2.40
2022-08-12T10:28:36.489Z,2.70
2022-08-12T10:33:54.805Z,2.45
2022-08-12T10:39:03.612Z,2.20
2022-08-12T10:44:25.875Z,2.50
2022-08-12T10:50:03.659Z,2.45
2022-08-12T10:54:57.316Z,2.17
2022-08-12T11:00:31.126Z,2.20
2022-08-12T11:07:10.116Z,2.20
2022-08-12T11:12:08.444Z,1.90
2022-08-12T11:16:40.377Z,2.05
2022-08-12T11:22:04.114Z,2.20
2022-08-12T11:27:11.023Z,2.25
2022-08-12T11:32:13.625Z,2.50
2022-08-12T11:37:24.837Z,1.95
2022-08-12T11:42:32.324Z,2.05
2022-08-12T11:47:34.537Z,2.30
2022-08-12T11:53:05.293Z,2.20
2022-08-12T12:00:22.118Z,2.38
2022-08-12T12:03:50.216Z,2.30
2022-08-12T12:08:53.726Z,1.95
2022-08-12T12:14:07.600Z,1.85
2022-08-12T12:19:13.237Z,1.73
2022-08-12T12:24:20.818Z,2.00
2022-08-12T12:30:18.700Z,1.80
2022-08-12T12:35:13.784Z,2.08
2022-08-12T12:40:09.393Z,2.17
2022-08-12T12:45:19.790Z,2.17
2022-08-12T12:50:35.816Z,2.10
2022-08-12T12:55:46.202Z,1.90
2022-08-12T13:00:51.185Z,1.92
2022-08-12T13:06:00.604Z,1.95
2022-08-12T13:11:05.330Z,2.00
2022-08-12T13:16:14.484Z,2.05
2022-08-12T13:21:33.514Z,2.03
2022-08-12T13:26:50.231Z,2.13
2022-08-12T13:32:36.351Z,2.20
2022-08-12T13:37:43.849Z,1.90
2022-08-12T13:43:01.910Z,2.00
2022-08-12T13:48:05.990Z,1.65
2022-08-12T13:53:23.893Z,1.85
2022-08-12T13:58:28.185Z,1.80
2022-08-12T14:03:51.470Z,2.10
2022-08-12T14:08:54.786Z,2.15
2022-08-12T14:14:06.104Z,1.95
2022-08-12T14:19:22.778Z,2.20
2022-08-12T14:24:34.861Z,1.70
2022-08-12T14:30:04.258Z,1.90
2022-08-12T14:35:09.405Z,2.33
2022-08-12T14:40:18.857Z,1.70
2022-08-12T14:45:44.817Z,2.00
2022-08-12T14:52:10.257Z,2.35
2022-08-12T15:01:39.161Z,1.80
2022-08-12T15:06:52.157Z,1.95
2022-08-12T15:12:03.064Z,1.90
2022-08-12T15:17:07.118Z,1.90
2022-08-12T15:22:39.647Z,2.20
2022-08-12T15:28:04.259Z,2.20
2022-08-12T15:32:54.338Z,2.45
2022-08-12T15:38:10.207Z,2.90
2022-08-12T15:43:51.960Z,2.38
2022-08-12T15:48:46.747Z,2.35
2022-08-12T15:54:30.896Z,2.33
2022-08-12T15:59:42.470Z,2.33
2022-08-12T16:04:52.745Z,1.83
2022-08-12T16:10:08.013Z,1.80
2022-08-12T16:15:13.209Z,2.00
2022-08-12T16:20:33.059Z,1.98
2022-08-12T16:26:03.373Z,2.45
2022-08-12T16:31:00.236Z,1.70
2022-08-12T16:36:06.836Z,1.85
2022-08-12T16:41:13.780Z,2.10
2022-08-12T16:46:31.979Z,2.30
2022-08-12T16:51:40.455Z,2.20
2022-08-12T16:56:50.816Z,2.33
2022-08-12T17:01:57.930Z,2.00
2022-08-12T17:07:01.562Z,2.33
2022-08-12T17:12:04.563Z,2.10
2022-08-12T17:17:12.448Z,2.10
2022-08-12T17:22:30.361Z,2.33
2022-08-12T17:27:34.126Z,2.42
2022-08-12T17:32:39.614Z,2.00
2022-08-12T17:37:42.962Z,1.90
2022-08-12T17:42:48.148Z,2.05
2022-08-12T17:48:01.905Z,1.80
2022-08-12T17:53:10.948Z,2.22
2022-08-12T17:59:01.667Z,2.00
2022-08-12T18:04:21.348Z,2.00
2022-08-12T18:10:10.245Z,2.38
2022-08-12T18:15:26.921Z,2.00
2022-08-12T18:21:03.519Z,1.90
2022-08-12T18:26:25.657Z,1.70
2022-08-12T18:31:32.924Z,2.15
2022-08-12T18:36:55.604Z,1.85
2022-08-12T18:41:59.466Z,1.90
2022-08-12T18:47:06.522Z,2.00
2022-08-12T18:52:16.269Z,1.90
2022-08-12T18:58:05.972Z,1.98
2022-08-12T19:02:58.585Z,1.77
2022-08-12T19:08:05.690Z,1.70
2022-08-12T19:13:27.102Z,1.60
2022-08-12T19:19:06.868Z,2.20
2022-08-12T19:25:13.915Z,2.33
2022-08-12T19:30:52.888Z,2.92
2022-08-12T19:36:24.623Z,2.10
2022-08-12T19:41:42.959Z,2.03
2022-08-12T19:47:25.189Z,2.50
2022-08-12T19:52:38.428Z,2.30
2022-08-12T19:58:04.907Z,2.80
2022-08-12T20:03:39.974Z,2.55
2022-08-12T20:09:20.982Z,2.30
2022-08-12T20:15:09.062Z,2.33
2022-08-12T20:20:35.415Z,2.92
2022-08-12T20:25:51.827Z,2.40
2022-08-12T20:31:09.097Z,2.55
2022-08-12T20:36:41.612Z,2.40
2022-08-12T20:42:01.894Z,2.63
2022-08-12T20:47:18.121Z,2.30
2022-08-12T20:52:29.246Z,2.33
2022-08-12T20:57:38.131Z,3.10
2022-08-12T21:02:45.686Z,2.92
2022-08-12T21:07:52.760Z,3.33
2022-08-12T21:12:54.916Z,2.88
2022-08-12T21:18:11.237Z,2.88
2022-08-12T21:23:30.970Z,2.80
2022-08-12T21:28:39.245Z,2.75
2022-08-12T21:34:06.372Z,2.42
2022-08-12T21:39:18.375Z,2.28
2022-08-12T21:45:44.240Z,2.50
2022-08-12T21:49:55.734Z,2.78
2022-08-12T21:55:18.019Z,2.80
2022-08-12T22:00:33.425Z,2.58
2022-08-12T22:05:54.580Z,2.78
2022-08-12T22:11:08.083Z,2.58
2022-08-12T22:16:11.771Z,3.08
2022-08-12T22:21:22.138Z,3.17
2022-08-12T22:26:29.428Z,3.38
2022-08-12T22:31:39.738Z,3.83
2022-08-12T22:36:41.815Z,2.78
2022-08-12T22:42:03.455Z,3.22
2022-08-12T22:47:55.023Z,2.70
2022-08-12T22:52:48.554Z,3.17
2022-08-12T22:57:54.781Z,2.65
2022-08-12T23:03:02.774Z,2.67
2022-08-12T23:08:05.356Z,2.80
2022-08-12T23:13:26.074Z,2.70
2022-08-12T23:18:33.235Z,2.83
2022-08-12T23:23:57.600Z,3.08
2022-08-12T23:29:29.672Z,2.67
2022-08-12T23:34:37.947Z,2.85
2022-08-12T23:40:13.324Z,2.63
2022-08-12T23:45:18.985Z,2.80
2022-08-12T23:50:33.807Z,3.00
2022-08-12T23:55:40.969Z,2.87
